createdAt,value
2023-04-16T00:01:48.621Z,100167.09
2023-04-16T00:04:50.630Z,100163.34
2023-04-16T00:07:53.010Z,100165.16
2023-04-16T00:10:54.947Z,100174.97
2023-04-16T00:13:56.868Z,100170.09
2023-04-16T00:16:58.822Z,100168.19
2023-04-16T00:20:00.786Z,100175.19
2023-04-16T00:23:02.762Z,100170.59
2023-04-16T00:26:04.952Z,100165.22
2023-04-16T00:29:07.205Z,100166.81
2023-04-16T00:32:09.320Z,100160.03
2023-04-16T00:35:11.261Z,100165.47
2023-04-16T00:38:14.394Z,100166.75
2023-04-16T00:41:16.543Z,100168.34
2023-04-16T00:44:18.438Z,100164.44
2023-04-16T00:47:21.831Z,100164.31
2023-04-16T00:50:23.972Z,100173.63
2023-04-16T00:53:26.101Z,100179.66
2023-04-16T00:56:28.595Z,100189.47
2023-04-16T00:59:30.771Z,100178.44
2023-04-16T01:02:34.374Z,100181.22
2023-04-16T01:05:37.010Z,100177.31
2023-04-16T01:08:39.313Z,100184.69
2023-04-16T01:11:41.238Z,100177.91
2023-04-16T01:14:43.208Z,100179.09
2023-04-16T01:17:48.430Z,100184.75
2023-04-16T01:20:51.415Z,100185.09
2023-04-16T01:23:53.178Z,100183.50
2023-04-16T01:26:55.085Z,100186.16
2023-04-16T01:29:57.132Z,100188.44
2023-04-16T01:33:11.446Z,100189.50
2023-04-16T01:36:13.518Z,100189.63
2023-04-16T01:39:16.635Z,100192.16
2023-04-16T01:42:18.540Z,100195.88
2023-04-16T01:45:20.954Z,100192.88
2023-04-16T01:48:23.647Z,100185.97
2023-04-16T01:51:25.573Z,100193.53
2023-04-16T01:54:27.470Z,100194.94
2023-04-16T01:57:29.575Z,100186.22
2023-04-16T02:00:31.622Z,100197.72
2023-04-16T02:03:34.382Z,100199.97
2023-04-16T02:06:36.483Z,100192.31
2023-04-16T02:09:40.369Z,100190.00
2023-04-16T02:12:42.410Z,100195.00
2023-04-16T02:15:49.426Z,100198.50
2023-04-16T02:18:56.031Z,100205.22
2023-04-16T02:22:01.538Z,100210.63
2023-04-16T02:25:03.710Z,100212.66
2023-04-16T02:28:06.381Z,100203.22
2023-04-16T02:31:13.288Z,100208.75
2023-04-16T02:34:19.102Z,100208.09
2023-04-16T02:37:21.095Z,100209.06
2023-04-16T02:40:22.936Z,100220.75
2023-04-16T02:43:24.894Z,100220.97
2023-04-16T02:46:26.916Z,100218.41
2023-04-16T02:49:28.909Z,100213.66
2023-04-16T02:52:32.396Z,100212.25
2023-04-16T02:55:34.313Z,100212.38
2023-04-16T02:58:36.210Z,100213.44
2023-04-16T03:01:38.254Z,100219.69
2023-04-16T03:04:40.393Z,100225.63
2023-04-16T03:07:42.300Z,100232.00
2023-04-16T03:10:44.155Z,100229.25
2023-04-16T03:13:46.177Z,100228.63
2023-04-16T03:16:48.133Z,100234.13
2023-04-16T03:19:50.987Z,100233.81
2023-04-16T03:22:54.558Z,100240.19
2023-04-16T03:25:56.445Z,100237.97
2023-04-16T03:29:00.047Z,100243.91
2023-04-16T03:32:04.084Z,100241.66
2023-04-16T03:35:07.653Z,100247.28
2023-04-16T03:38:09.956Z,100249.41
2023-04-16T03:41:12.653Z,100244.72
2023-04-16T03:44:14.606Z,100248.53
2023-04-16T03:47:17.312Z,100243.75
2023-04-16T03:50:20.579Z,100253.31
2023-04-16T03:53:23.095Z,100252.25
2023-04-16T03:56:25.249Z,100256.38
2023-04-16T03:59:28.298Z,100258.72
2023-04-16T04:02:30.572Z,100259.13
2023-04-16T04:05:37.083Z,100257.63
2023-04-16T04:08:39.363Z,100255.84
2023-04-16T04:11:42.679Z,100246.69
2023-04-16T04:14:44.624Z,100254.72
2023-04-16T04:17:46.590Z,100251.91
2023-04-16T04:20:48.647Z,100247.75
2023-04-16T04:23:55.580Z,100248.53
2023-04-16T04:26:58.712Z,100247.50
2023-04-16T04:30:00.825Z,100239.19
2023-04-16T04:33:03.192Z,100240.84
2023-04-16T04:36:05.349Z,100246.31
2023-04-16T04:39:08.897Z,100237.81
2023-04-16T04:42:11.652Z,100248.50
2023-04-16T04:45:14.352Z,100248.75
2023-04-16T04:48:17.658Z,100260.00
2023-04-16T04:51:19.859Z,100264.63
2023-04-16T04:54:22.616Z,100266.56
2023-04-16T04:57:24.717Z,100275.03
2023-04-16T05:00:29.484Z,100275.16
2023-04-16T05:03:32.109Z,100276.72
2023-04-16T05:06:33.979Z,100279.13
2023-04-16T05:09:36.020Z,100279.28
2023-04-16T05:12:37.864Z,100282.53
2023-04-16T05:15:39.761Z,100280.28
2023-04-16T05:18:41.940Z,100276.94
2023-04-16T05:21:43.781Z,100283.53
2023-04-16T05:24:45.858Z,100284.47
2023-04-16T05:27:47.723Z,100280.25
2023-04-16T05:30:49.701Z,100284.00
2023-04-16T05:33:51.553Z,100286.16
2023-04-16T05:36:53.352Z,100289.09
2023-04-16T05:39:55.247Z,100298.31
2023-04-16T05:42:57.109Z,100286.16
2023-04-16T05:45:59.104Z,100289.41
2023-04-16T05:49:00.998Z,100280.25
2023-04-16T05:52:06.338Z,100287.06
2023-04-16T05:55:08.535Z,100285.66
2023-04-16T05:58:10.623Z,100286.22
2023-04-16T06:01:12.636Z,100290.31
2023-04-16T06:04:14.777Z,100284.81
2023-04-16T06:07:16.872Z,100275.41
2023-04-16T06:10:18.770Z,100276.28
2023-04-16T06:13:20.760Z,100267.41
2023-04-16T06:16:22.633Z,100270.63
2023-04-16T06:19:24.600Z,100282.47
2023-04-16T06:22:26.894Z,100283.22
2023-04-16T06:25:28.753Z,100267.94
2023-04-16T06:28:30.733Z,100274.66
2023-04-16T06:31:32.690Z,100276.59
2023-04-16T06:34:34.660Z,100276.97
2023-04-16T06:37:36.554Z,100284.88
2023-04-16T06:40:38.431Z,100284.16
2023-04-16T06:43:40.501Z,100287.34
2023-04-16T06:46:42.328Z,100288.94
2023-04-16T06:49:44.383Z,100284.56
2023-04-16T06:52:46.334Z,100278.56
2023-04-16T06:55:48.254Z,100274.72
2023-04-16T06:58:50.868Z,100285.25
2023-04-16T07:01:55.989Z,100284.09
2023-04-16T07:04:57.961Z,100286.03
2023-04-16T07:07:59.937Z,100270.44
2023-04-16T07:11:02.136Z,100283.41
2023-04-16T07:14:04.022Z,100289.38
2023-04-16T07:17:06.060Z,100289.41
2023-04-16T07:20:08.837Z,100286.09
2023-04-16T07:23:10.662Z,100285.25
2023-04-16T07:26:12.458Z,100291.25
2023-04-16T07:29:14.282Z,100278.91
2023-04-16T07:32:16.287Z,100283.97
2023-04-16T07:35:18.316Z,100278.69
2023-04-16T07:38:20.192Z,100280.91
2023-04-16T07:41:22.200Z,100274.59
2023-04-16T07:44:23.996Z,100271.88
2023-04-16T07:47:27.203Z,100275.63
2023-04-16T07:50:29.100Z,100279.22
2023-04-16T07:53:31.105Z,100269.41
2023-04-16T07:56:33.061Z,100272.31
2023-04-16T07:59:34.958Z,100269.59
2023-04-16T08:02:37.233Z,100264.78
2023-04-16T08:05:39.199Z,100265.66
2023-04-16T08:08:42.060Z,100279.16
2023-04-16T08:11:43.878Z,100263.97
2023-04-16T08:14:45.948Z,100256.53
2023-04-16T08:17:47.861Z,100263.25
2023-04-16T08:20:49.808Z,100265.19
2023-04-16T08:23:51.678Z,100266.66
2023-04-16T08:26:53.508Z,100261.19
2023-04-16T08:29:55.398Z,100270.16
2023-04-16T08:32:57.784Z,100268.13
2023-04-16T08:35:59.605Z,100274.03
2023-04-16T08:39:01.552Z,100279.63
2023-04-16T08:42:06.247Z,100274.72
2023-04-16T08:45:17.349Z,100266.13
2023-04-16T08:48:22.172Z,100267.84
2023-04-16T08:51:25.178Z,100260.41
2023-04-16T08:54:36.025Z,100262.75
2023-04-16T08:57:44.911Z,100264.97
2023-04-16T09:00:48.585Z,100262.44
2023-04-16T09:03:51.875Z,100254.13
2023-04-16T09:06:55.865Z,100251.41
2023-04-16T09:10:00.024Z,100254.25
2023-04-16T09:13:01.977Z,100254.06
2023-04-16T09:16:04.363Z,100261.09
2023-04-16T09:19:06.177Z,100250.53
2023-04-16T09:22:08.455Z,100248.72
2023-04-16T09:25:11.411Z,100258.03
2023-04-16T09:28:13.370Z,100251.38
2023-04-16T09:31:16.975Z,100242.56
2023-04-16T09:34:18.923Z,100255.44
2023-04-16T09:37:21.172Z,100243.06
2023-04-16T09:40:27.514Z,100250.19
2023-04-16T09:43:29.549Z,100243.75
2023-04-16T09:46:36.456Z,100237.06
2023-04-16T09:49:44.858Z,100246.94
2023-04-16T09:52:53.367Z,100243.47
2023-04-16T09:56:05.148Z,100244.75
2023-04-16T09:59:07.191Z,100248.59
2023-04-16T10:02:15.492Z,100251.94
2023-04-16T10:05:20.284Z,100246.50
2023-04-16T10:08:24.113Z,100250.78
2023-04-16T10:11:26.386Z,100262.53
2023-04-16T10:14:28.375Z,100257.13
2023-04-16T10:17:31.685Z,100241.16
2023-04-16T10:20:33.679Z,100245.50
2023-04-16T10:23:35.649Z,100245.13
2023-04-16T10:26:37.861Z,100240.81
2023-04-16T10:29:40.270Z,100248.41
2023-04-16T10:32:42.705Z,100232.38
2023-04-16T10:35:52.255Z,100234.31
2023-04-16T10:39:00.925Z,100235.91
2023-04-16T10:42:12.976Z,100240.47
2023-04-16T10:45:14.967Z,100237.69
2023-04-16T10:48:19.064Z,100233.16
2023-04-16T10:51:32.724Z,100240.06
2023-04-16T10:54:36.042Z,100241.38
2023-04-16T10:57:38.034Z,100235.31
2023-04-16T11:00:52.370Z,100224.66
2023-04-16T11:03:54.745Z,100220.69
2023-04-16T11:07:14.677Z,100213.06
2023-04-16T11:10:16.686Z,100213.44
2023-04-16T11:13:19.963Z,100224.69
2023-04-16T11:16:21.812Z,100222.84
2023-04-16T11:19:23.828Z,100218.69
2023-04-16T11:22:26.706Z,100206.44
2023-04-16T11:25:30.481Z,100203.44
2023-04-16T11:28:34.011Z,100205.00
2023-04-16T11:31:35.955Z,100200.59
2023-04-16T11:34:46.026Z,100203.47
2023-04-16T11:37:48.860Z,100194.44
2023-04-16T11:40:51.870Z,100182.56
2023-04-16T11:43:53.750Z,100180.56
2023-04-16T11:46:55.790Z,100184.94
2023-04-16T11:49:58.332Z,100175.25
2023-04-16T11:53:04.976Z,100176.75
2023-04-16T11:56:07.215Z,100174.19
2023-04-16T11:59:13.718Z,100170.84
2023-04-16T12:02:16.237Z,100173.50
2023-04-16T12:05:41.575Z,100171.38
2023-04-16T12:08:43.559Z,100182.06
2023-04-16T12:11:45.625Z,100172.66
2023-04-16T12:14:51.575Z,100164.72
2023-04-16T12:18:07.311Z,100174.13
2023-04-16T12:21:10.416Z,100161.47
2023-04-16T12:24:14.955Z,100155.78
2023-04-16T12:27:16.782Z,100150.44
2023-04-16T12:30:20.783Z,100159.97
2023-04-16T12:33:22.896Z,100147.44
2023-04-16T12:36:24.812Z,100150.84
2023-04-16T12:39:26.756Z,100147.03
2023-04-16T12:42:35.076Z,100152.63
2023-04-16T12:45:38.382Z,100155.81
2023-04-16T12:48:40.274Z,100144.88
2023-04-16T12:51:42.336Z,100152.22
2023-04-16T12:54:44.220Z,100135.41
2023-04-16T12:57:48.874Z,100146.97
2023-04-16T13:00:50.857Z,100142.81
2023-04-16T13:03:53.031Z,100136.31
2023-04-16T13:06:54.998Z,100138.47
2023-04-16T13:09:56.808Z,100141.19
2023-04-16T13:12:58.729Z,100133.38
2023-04-16T13:16:00.705Z,100137.09
2023-04-16T13:19:02.573Z,100136.75
2023-04-16T13:22:05.750Z,100138.13
2023-04-16T13:25:08.375Z,100134.13
2023-04-16T13:28:10.570Z,100142.69
2023-04-16T13:31:12.519Z,100130.25
2023-04-16T13:34:14.644Z,100128.25
2023-04-16T13:37:17.073Z,100125.75
2023-04-16T13:40:18.995Z,100126.03
2023-04-16T13:43:22.367Z,100125.84
2023-04-16T13:46:24.370Z,100120.28
2023-04-16T13:49:26.423Z,100128.03
2023-04-16T13:52:28.360Z,100130.91
2023-04-16T13:55:32.065Z,100127.56
2023-04-16T13:58:34.066Z,100131.78
2023-04-16T14:01:35.982Z,100128.56
2023-04-16T14:04:37.928Z,100132.72
2023-04-16T14:07:39.770Z,100126.31
2023-04-16T14:10:41.634Z,100126.69
2023-04-16T14:13:43.490Z,100121.47
2023-04-16T14:16:45.639Z,100124.66
2023-04-16T14:19:47.763Z,100125.47
2023-04-16T14:22:49.861Z,100126.41
2023-04-16T14:25:51.906Z,100118.97
2023-04-16T14:28:53.749Z,100126.53
2023-04-16T14:31:55.652Z,100118.59
2023-04-16T14:34:57.680Z,100125.50
2023-04-16T14:37:59.697Z,100124.56
2023-04-16T14:41:01.682Z,100116.38
2023-04-16T14:44:06.154Z,100114.25
2023-04-16T14:47:08.651Z,100114.16
2023-04-16T14:50:11.467Z,100114.53
2023-04-16T14:53:13.533Z,100120.88
2023-04-16T14:56:15.594Z,100117.97
2023-04-16T14:59:17.498Z,100117.19
2023-04-16T15:02:19.696Z,100117.38
2023-04-16T15:05:22.128Z,100114.72
2023-04-16T15:08:24.478Z,100112.56
2023-04-16T15:11:26.778Z,100114.81
2023-04-16T15:14:28.691Z,100114.22
2023-04-16T15:17:30.739Z,100119.28
2023-04-16T15:20:32.939Z,100121.81
2023-04-16T15:23:34.871Z,100126.22
2023-04-16T15:26:36.821Z,100123.34
2023-04-16T15:29:38.784Z,100116.25
2023-04-16T15:32:40.804Z,100115.41
2023-04-16T15:35:42.774Z,100113.75
2023-04-16T15:38:44.589Z,100113.59
2023-04-16T15:41:59.824Z,100121.53
2023-04-16T15:45:03.678Z,100111.59
2023-04-16T15:48:06.296Z,100118.50
2023-04-16T15:51:08.192Z,100119.19
2023-04-16T15:54:10.053Z,100123.06
2023-04-16T15:57:11.926Z,100121.06
2023-04-16T16:00:15.071Z,100120.38
2023-04-16T16:03:21.641Z,100126.78
2023-04-16T16:06:23.898Z,100126.44
2023-04-16T16:09:26.586Z,100127.13
2023-04-16T16:12:28.920Z,100121.06
2023-04-16T16:15:31.833Z,100129.13
2023-04-16T16:18:33.798Z,100129.63
2023-04-16T16:21:35.696Z,100127.09
2023-04-16T16:24:37.579Z,100131.28
2023-04-16T16:27:40.768Z,100135.94
2023-04-16T16:30:42.649Z,100133.75
2023-04-16T16:33:44.547Z,100131.88
2023-04-16T16:36:47.010Z,100123.94
2023-04-16T16:39:48.901Z,100136.88
2023-04-16T16:42:51.017Z,100142.06
2023-04-16T16:45:53.068Z,100140.69
2023-04-16T16:48:54.972Z,100132.59
2023-04-16T16:51:57.682Z,100143.16
2023-04-16T16:54:59.591Z,100143.78
2023-04-16T16:58:01.582Z,100140.91
2023-04-16T17:01:03.853Z,100147.91
2023-04-16T17:04:05.964Z,100150.75
2023-04-16T17:07:07.949Z,100151.25
2023-04-16T17:10:13.160Z,100153.25
2023-04-16T17:13:19.808Z,100156.56
2023-04-16T17:16:21.981Z,100162.09
2023-04-16T17:19:23.974Z,100153.31
2023-04-16T17:22:25.914Z,100153.63
2023-04-16T17:25:27.863Z,100150.56
2023-04-16T17:28:29.751Z,100161.09
2023-04-16T17:31:31.837Z,100161.72
2023-04-16T17:34:34.518Z,100162.34
2023-04-16T17:37:36.493Z,100170.03
2023-04-16T17:40:38.445Z,100166.13
2023-04-16T17:43:40.295Z,100165.16
2023-04-16T17:46:42.258Z,100169.84
2023-04-16T17:49:44.512Z,100165.25
2023-04-16T17:52:47.685Z,100167.69
2023-04-16T17:55:54.673Z,100170.69
2023-04-16T17:58:58.520Z,100171.00
2023-04-16T18:02:00.630Z,100163.72
2023-04-16T18:05:02.568Z,100176.22
2023-04-16T18:08:04.588Z,100176.50
2023-04-16T18:11:08.350Z,100168.53
2023-04-16T18:14:12.295Z,100177.13
2023-04-16T18:17:14.418Z,100177.72
2023-04-16T18:20:19.529Z,100184.13
2023-04-16T18:23:21.597Z,100176.53
2023-04-16T18:26:23.398Z,100172.75
2023-04-16T18:29:25.632Z,100184.94
2023-04-16T18:32:31.164Z,100178.31
2023-04-16T18:35:33.332Z,100178.78
2023-04-16T18:38:35.218Z,100173.84
2023-04-16T18:41:37.446Z,100173.59
2023-04-16T18:44:39.315Z,100180.25
2023-04-16T18:47:41.739Z,100182.38
2023-04-16T18:50:43.635Z,100186.34
2023-04-16T18:53:45.931Z,100188.31
2023-04-16T18:56:47.835Z,100182.69
2023-04-16T18:59:49.761Z,100184.13
2023-04-16T19:02:51.700Z,100180.53
2023-04-16T19:05:54.129Z,100185.03
2023-04-16T19:08:56.075Z,100188.72
2023-04-16T19:11:58.475Z,100183.22
2023-04-16T19:15:00.581Z,100185.19
2023-04-16T19:18:02.551Z,100183.66
2023-04-16T19:21:05.622Z,100183.81
2023-04-16T19:24:07.477Z,100183.66
2023-04-16T19:27:09.340Z,100193.81
2023-04-16T19:30:11.469Z,100181.69
2023-04-16T19:33:13.599Z,100190.00
2023-04-16T19:36:15.476Z,100184.38
2023-04-16T19:39:17.348Z,100189.31
2023-04-16T19:42:19.151Z,100193.81
2023-04-16T19:45:25.875Z,100189.59
2023-04-16T19:48:27.886Z,100193.53
2023-04-16T19:51:29.844Z,100196.34
2023-04-16T19:54:33.662Z,100189.75
2023-04-16T19:57:35.637Z,100188.91
2023-04-16T20:00:39.020Z,100191.00
2023-04-16T20:03:41.134Z,100192.13
2023-04-16T20:06:43.042Z,100195.38
2023-04-16T20:09:45.101Z,100192.00
2023-04-16T20:12:47.346Z,100191.44
2023-04-16T20:15:53.960Z,100192.28
2023-04-16T20:18:55.996Z,100192.69
2023-04-16T20:21:57.930Z,100193.81
2023-04-16T20:24:59.814Z,100190.72
2023-04-16T20:28:01.786Z,100198.88
2023-04-16T20:31:03.733Z,100195.06
2023-04-16T20:34:05.724Z,100198.72
2023-04-16T20:37:07.642Z,100192.94
2023-04-16T20:40:10.949Z,100199.41
2023-04-16T20:43:14.413Z,100198.84
2023-04-16T20:46:17.296Z,100203.75
2023-04-16T20:49:19.586Z,100201.63
2023-04-16T20:52:24.411Z,100201.06
2023-04-16T20:55:26.677Z,100197.09
2023-04-16T20:58:29.209Z,100201.88
2023-04-16T21:01:31.121Z,100196.81
2023-04-16T21:04:33.053Z,100204.25
2023-04-16T21:07:34.930Z,100208.31
2023-04-16T21:10:36.834Z,100204.34
2023-04-16T21:13:38.649Z,100197.00
2023-04-16T21:16:40.791Z,100205.16
2023-04-16T21:19:42.761Z,100199.22
2023-04-16T21:22:44.772Z,100199.63
2023-04-16T21:25:46.655Z,100203.41
2023-04-16T21:28:48.527Z,100197.75
2023-04-16T21:31:50.807Z,100190.16
2023-04-16T21:34:52.784Z,100192.50
2023-04-16T21:37:54.618Z,100189.38
2023-04-16T21:40:56.969Z,100191.34
2023-04-16T21:43:58.895Z,100194.41
2023-04-16T21:47:00.781Z,100196.47
2023-04-16T21:50:03.362Z,100201.81
2023-04-16T21:53:06.760Z,100200.63
2023-04-16T21:56:08.690Z,100196.28
2023-04-16T21:59:10.830Z,100196.81
2023-04-16T22:02:12.912Z,100194.25
2023-04-16T22:05:14.932Z,100203.63
2023-04-16T22:08:23.966Z,100203.19
2023-04-16T22:11:26.776Z,100209.88
2023-04-16T22:14:29.726Z,100208.84
2023-04-16T22:17:31.497Z,100205.72
2023-04-16T22:20:39.040Z,100210.31
2023-04-16T22:23:41.237Z,100206.22
2023-04-16T22:26:43.107Z,100209.88
2023-04-16T22:29:45.300Z,100202.25
2023-04-16T22:32:47.325Z,100201.53
2023-04-16T22:35:49.240Z,100200.94
2023-04-16T22:38:51.117Z,100197.69
2023-04-16T22:41:53.025Z,100196.09
2023-04-16T22:44:55.011Z,100199.75
2023-04-16T22:47:56.869Z,100191.28
2023-04-16T22:50:58.857Z,100194.19
2023-04-16T22:54:00.951Z,100191.06
2023-04-16T22:57:02.766Z,100191.06
2023-04-16T23:00:11.387Z,100187.94
2023-04-16T23:03:13.504Z,100189.28
2023-04-16T23:06:15.827Z,100188.69
2023-04-16T23:09:17.837Z,100192.69
2023-04-16T23:12:19.647Z,100183.63
2023-04-16T23:15:21.588Z,100184.38
2023-04-16T23:18:23.504Z,100190.34
2023-04-16T23:21:26.044Z,100189.25
2023-04-16T23:24:28.013Z,100187.31
2023-04-16T23:27:29.950Z,100184.19
2023-04-16T23:30:32.219Z,100182.97
2023-04-16T23:33:34.969Z,100177.88
2023-04-16T23:36:36.793Z,100183.72
2023-04-16T23:39:38.797Z,100183.34
2023-04-16T23:42:40.783Z,100180.06
2023-04-16T23:45:42.633Z,100176.94
2023-04-16T23:48:44.550Z,100175.47
2023-04-16T23:51:46.396Z,100180.91
2023-04-16T23:54:48.315Z,100179.22
2023-04-16T23:57:50.251Z,100183.69
